sensor_id;sensor_type;location;lat;lon;timestamp;temperature;humidity
42095;DHT22;27753;55.724;37.612;2022-12-04T00:01:41;-6.30;96.20
42095;DHT22;27753;55.724;37.612;2022-12-04T00:04:09;-6.50;96.10
42095;DHT22;27753;55.724;37.612;2022-12-04T00:06:36;-6.50;96.20
42095;DHT22;27753;55.724;37.612;2022-12-04T00:09:02;-6.60;96.30
42095;DHT22;27753;55.724;37.612;2022-12-04T00:11:30;-6.60;96.30
42095;DHT22;27753;55.724;37.612;2022-12-04T00:13:57;-6.60;96.20
42095;DHT22;27753;55.724;37.612;2022-12-04T00:16:25;-6.70;96.10
42095;DHT22;27753;55.724;37.612;2022-12-04T00:18:51;-6.80;96.10
42095;DHT22;27753;55.724;37.612;2022-12-04T00:21:18;-6.90;96.10
42095;DHT22;27753;55.724;37.612;2022-12-04T00:23:44;-7.00;96.20
42095;DHT22;27753;55.724;37.612;2022-12-04T00:26:15;-6.90;96.30
42095;DHT22;27753;55.724;37.612;2022-12-04T00:28:42;-6.90;96.30
42095;DHT22;27753;55.724;37.612;2022-12-04T00:31:11;-6.90;96.30
42095;DHT22;27753;55.724;37.612;2022-12-04T00:33:37;-6.90;96.30
42095;DHT22;27753;55.724;37.612;2022-12-04T00:36:05;-6.90;96.20
42095;DHT22;27753;55.724;37.612;2022-12-04T00:38:32;-7.00;96.10
42095;DHT22;27753;55.724;37.612;2022-12-04T00:40:58;-7.10;96.10
42095;DHT22;27753;55.724;37.612;2022-12-04T00:43:26;-7.10;96.20
42095;DHT22;27753;55.724;37.612;2022-12-04T00:45:52;-7.10;96.30
42095;DHT22;27753;55.724;37.612;2022-12-04T00:48:18;-7.20;96.20
42095;DHT22;27753;55.724;37.612;2022-12-04T00:50:44;-7.20;96.20
42095;DHT22;27753;55.724;37.612;2022-12-04T00:53:11;-7.20;96.20
42095;DHT22;27753;55.724;37.612;2022-12-04T00:55:38;-7.20;96.30
42095;DHT22;27753;55.724;37.612;2022-12-04T00:58:04;-7.20;96.40
42095;DHT22;27753;55.724;37.612;2022-12-04T01:00:36;-7.10;96.50
42095;DHT22;27753;55.724;37.612;2022-12-04T01:03:03;-7.10;96.40
42095;DHT22;27753;55.724;37.612;2022-12-04T01:05:29;-7.10;96.20
42095;DHT22;27753;55.724;37.612;2022-12-04T01:07:55;-7.20;96.10
42095;DHT22;27753;55.724;37.612;2022-12-04T01:10:21;-7.20;96.10
42095;DHT22;27753;55.724;37.612;2022-12-04T01:12:51;-7.30;96.10
42095;DHT22;27753;55.724;37.612;2022-12-04T01:15:18;-7.40;96.20
42095;DHT22;27753;55.724;37.612;2022-12-04T01:17:44;-7.40;96.20
42095;DHT22;27753;55.724;37.612;2022-12-04T01:20:11;-7.40;96.20
42095;DHT22;27753;55.724;37.612;2022-12-04T01:22:38;-7.40;96.10
42095;DHT22;27753;55.724;37.612;2022-12-04T01:25:04;-7.50;96.20
42095;DHT22;27753;55.724;37.612;2022-12-04T01:27:30;-7.60;96.20
42095;DHT22;27753;55.724;37.612;2022-12-04T01:29:57;-7.60;96.30
42095;DHT22;27753;55.724;37.612;2022-12-04T01:32:23;-7.70;96.40
42095;DHT22;27753;55.724;37.612;2022-12-04T01:34:48;-7.60;96.50
42095;DHT22;27753;55.724;37.612;2022-12-04T01:37:14;-7.60;96.40
42095;DHT22;27753;55.724;37.612;2022-12-04T01:39:40;-7.70;96.40
42095;DHT22;27753;55.724;37.612;2022-12-04T01:42:12;-7.70;96.40
42095;DHT22;27753;55.724;37.612;2022-12-04T01:44:41;-7.80;96.40
42095;DHT22;27753;55.724;37.612;2022-12-04T01:47:09;-7.80;96.50
42095;DHT22;27753;55.724;37.612;2022-12-04T01:49:38;-7.80;96.60
42095;DHT22;27753;55.724;37.612;2022-12-04T01:52:14;-7.90;96.50
42095;DHT22;27753;55.724;37.612;2022-12-04T01:54:44;-7.90;96.60
42095;DHT22;27753;55.724;37.612;2022-12-04T01:57:19;-7.90;96.70
42095;DHT22;27753;55.724;37.612;2022-12-04T01:59:50;-7.90;96.70
42095;DHT22;27753;55.724;37.612;2022-12-04T02:02:21;-7.90;96.70
42095;DHT22;27753;55.724;37.612;2022-12-04T02:04:48;-7.90;96.60
42095;DHT22;27753;55.724;37.612;2022-12-04T02:07:15;-8.00;96.60
42095;DHT22;27753;55.724;37.612;2022-12-04T02:09:41;-8.00;96.70
42095;DHT22;27753;55.724;37.612;2022-12-04T02:12:21;-8.00;96.80
42095;DHT22;27753;55.724;37.612;2022-12-04T02:14:57;-8.00;96.70
42095;DHT22;27753;55.724;37.612;2022-12-04T02:20:48;-8.00;96.70
42095;DHT22;27753;55.724;37.612;2022-12-04T02:31:50;-8.00;96.70
42095;DHT22;27753;55.724;37.612;2022-12-04T02:34:26;-8.00;96.60
42095;DHT22;27753;55.724;37.612;2022-12-04T02:37:13;-8.00;96.60
42095;DHT22;27753;55.724;37.612;2022-12-04T02:39:54;-8.00;96.60
42095;DHT22;27753;55.724;37.612;2022-12-04T02:42:32;-8.10;96.60
42095;DHT22;27753;55.724;37.612;2022-12-04T02:45:02;-8.10;96.60
42095;DHT22;27753;55.724;37.612;2022-12-04T02:47:31;-8.10;96.70
42095;DHT22;27753;55.724;37.612;2022-12-04T02:49:59;-8.20;96.70
42095;DHT22;27753;55.724;37.612;2022-12-04T02:52:34;-8.10;96.70
42095;DHT22;27753;55.724;37.612;2022-12-04T02:55:19;-8.10;96.70
42095;DHT22;27753;55.724;37.612;2022-12-04T02:57:49;-8.10;96.70
42095;DHT22;27753;55.724;37.612;2022-12-04T03:00:16;-8.10;96.60
42095;DHT22;27753;55.724;37.612;2022-12-04T03:02:58;-8.20;96.50
42095;DHT22;27753;55.724;37.612;2022-12-04T03:05:33;-8.20;96.60
42095;DHT22;27753;55.724;37.612;2022-12-04T03:08:10;-8.30;96.50
42095;DHT22;27753;55.724;37.612;2022-12-04T03:10:43;-8.30;96.50
42095;DHT22;27753;55.724;37.612;2022-12-04T03:13:31;-8.40;96.60
42095;DHT22;27753;55.724;37.612;2022-12-04T03:16:15;-8.40;96.60
42095;DHT22;27753;55.724;37.612;2022-12-04T03:21:18;-8.40;96.60
42095;DHT22;27753;55.724;37.612;2022-12-04T03:23:50;-8.40;96.70
42095;DHT22;27753;55.724;37.612;2022-12-04T03:26:36;-8.50;96.60
42095;DHT22;27753;55.724;37.612;2022-12-04T03:31:57;-8.50;96.60
42095;DHT22;27753;55.724;37.612;2022-12-04T03:34:57;-8.50;96.60
42095;DHT22;27753;55.724;37.612;2022-12-04T03:37:37;-8.50;96.60
42095;DHT22;27753;55.724;37.612;2022-12-04T03:40:13;-8.50;96.60
42095;DHT22;27753;55.724;37.612;2022-12-04T03:42:46;-8.50;96.60
42095;DHT22;27753;55.724;37.612;2022-12-04T03:48:00;-8.60;96.60
42095;DHT22;27753;55.724;37.612;2022-12-04T03:50:35;-8.60;96.60
42095;DHT22;27753;55.724;37.612;2022-12-04T03:53:11;-8.60;96.60
42095;DHT22;27753;55.724;37.612;2022-12-04T03:55:46;-8.60;96.60
42095;DHT22;27753;55.724;37.612;2022-12-04T03:58:24;-8.60;96.60
42095;DHT22;27753;55.724;37.612;2022-12-04T04:00:52;-8.60;96.60
42095;DHT22;27753;55.724;37.612;2022-12-04T04:03:23;-8.60;96.60
42095;DHT22;27753;55.724;37.612;2022-12-04T04:05:53;-8.60;96.60
42095;DHT22;27753;55.724;37.612;2022-12-04T04:08:24;-8.50;96.70
42095;DHT22;27753;55.724;37.612;2022-12-04T04:10:57;-8.60;96.50
42095;DHT22;27753;55.724;37.612;2022-12-04T04:13:28;-8.60;96.60
42095;DHT22;27753;55.724;37.612;2022-12-04T04:16:18;-8.60;96.50
42095;DHT22;27753;55.724;37.612;2022-12-04T04:19:04;-8.60;96.60
42095;DHT22;27753;55.724;37.612;2022-12-04T04:21:52;-8.70;96.40
42095;DHT22;27753;55.724;37.612;2022-12-04T04:24:46;-8.70;96.50
42095;DHT22;27753;55.724;37.612;2022-12-04T04:27:13;-8.70;96.50
42095;DHT22;27753;55.724;37.612;2022-12-04T04:29:40;-8.70;96.60
42095;DHT22;27753;55.724;37.612;2022-12-04T04:32:29;-8.70;96.60
42095;DHT22;27753;55.724;37.612;2022-12-04T04:40:50;-8.80;96.50
42095;DHT22;27753;55.724;37.612;2022-12-04T04:43:31;-8.80;96.50
42095;DHT22;27753;55.724;37.612;2022-12-04T04:48:49;-8.80;96.60
42095;DHT22;27753;55.724;37.612;2022-12-04T04:51:16;-8.70;96.70
42095;DHT22;27753;55.724;37.612;2022-12-04T04:54:04;-8.70;96.70
42095;DHT22;27753;55.724;37.612;2022-12-04T04:56:31;-8.70;96.70
42095;DHT22;27753;55.724;37.612;2022-12-04T04:58:57;-8.60;96.70
42095;DHT22;27753;55.724;37.612;2022-12-04T05:01:26;-8.60;96.70
42095;DHT22;27753;55.724;37.612;2022-12-04T05:03:52;-8.60;96.50
42095;DHT22;27753;55.724;37.612;2022-12-04T05:06:18;-8.60;96.50
42095;DHT22;27753;55.724;37.612;2022-12-04T05:08:44;-8.60;96.50
42095;DHT22;27753;55.724;37.612;2022-12-04T05:11:13;-8.60;96.40
42095;DHT22;27753;55.724;37.612;2022-12-04T05:13:39;-8.60;96.40
42095;DHT22;27753;55.724;37.612;2022-12-04T05:16:11;-8.50;96.50
42095;DHT22;27753;55.724;37.612;2022-12-04T05:18:37;-8.50;96.40
42095;DHT22;27753;55.724;37.612;2022-12-04T05:21:12;-8.60;96.00
42095;DHT22;27753;55.724;37.612;2022-12-04T05:23:43;-8.60;96.10
42095;DHT22;27753;55.724;37.612;2022-12-04T05:26:09;-8.70;96.00
42095;DHT22;27753;55.724;37.612;2022-12-04T05:28:35;-8.70;96.10
42095;DHT22;27753;55.724;37.612;2022-12-04T05:31:02;-8.70;96.10
42095;DHT22;27753;55.724;37.612;2022-12-04T05:33:29;-8.70;96.20
42095;DHT22;27753;55.724;37.612;2022-12-04T05:35:59;-8.70;96.10
42095;DHT22;27753;55.724;37.612;2022-12-04T05:38:25;-8.70;96.20
42095;DHT22;27753;55.724;37.612;2022-12-04T05:40:51;-8.80;96.20
42095;DHT22;27753;55.724;37.612;2022-12-04T05:43:17;-8.80;96.20
42095;DHT22;27753;55.724;37.612;2022-12-04T05:45:43;-8.80;96.20
42095;DHT22;27753;55.724;37.612;2022-12-04T05:48:09;-8.80;96.10
42095;DHT22;27753;55.724;37.612;2022-12-04T05:50:35;-8.80;96.10
42095;DHT22;27753;55.724;37.612;2022-12-04T05:53:02;-8.80;96.20
42095;DHT22;27753;55.724;37.612;2022-12-04T05:55:28;-8.90;96.10
42095;DHT22;27753;55.724;37.612;2022-12-04T05:57:53;-8.80;96.10
42095;DHT22;27753;55.724;37.612;2022-12-04T06:00:19;-8.90;96.10
42095;DHT22;27753;55.724;37.612;2022-12-04T06:02:45;-8.90;96.30
42095;DHT22;27753;55.724;37.612;2022-12-04T06:05:11;-8.80;96.10
42095;DHT22;27753;55.724;37.612;2022-12-04T06:07:37;-8.90;96.20
42095;DHT22;27753;55.724;37.612;2022-12-04T06:10:04;-8.80;96.20
42095;DHT22;27753;55.724;37.612;2022-12-04T06:12:30;-8.90;96.20
42095;DHT22;27753;55.724;37.612;2022-12-04T06:14:56;-8.80;96.30
42095;DHT22;27753;55.724;37.612;2022-12-04T06:17:22;-8.80;96.20
42095;DHT22;27753;55.724;37.612;2022-12-04T06:19:48;-8.80;96.20
42095;DHT22;27753;55.724;37.612;2022-12-04T06:22:14;-8.70;96.30
42095;DHT22;27753;55.724;37.612;2022-12-04T06:24:40;-8.70;96.20
42095;DHT22;27753;55.724;37.612;2022-12-04T06:27:09;-8.70;96.10
42095;DHT22;27753;55.724;37.612;2022-12-04T06:29:35;-8.70;96.10
42095;DHT22;27753;55.724;37.612;2022-12-04T06:32:01;-8.70;96.20
42095;DHT22;27753;55.724;37.612;2022-12-04T06:34:27;-8.60;96.10
42095;DHT22;27753;55.724;37.612;2022-12-04T06:36:53;-8.60;96.10
42095;DHT22;27753;55.724;37.612;2022-12-04T06:39:19;-8.60;96.00
42095;DHT22;27753;55.724;37.612;2022-12-04T06:41:45;-8.60;95.80
42095;DHT22;27753;55.724;37.612;2022-12-04T06:44:13;-8.60;95.80
42095;DHT22;27753;55.724;37.612;2022-12-04T06:46:39;-8.60;95.90
42095;DHT22;27753;55.724;37.612;2022-12-04T06:49:05;-8.60;95.80
42095;DHT22;27753;55.724;37.612;2022-12-04T06:51:34;-8.60;95.80
42095;DHT22;27753;55.724;37.612;2022-12-04T06:54:00;-8.60;95.80
42095;DHT22;27753;55.724;37.612;2022-12-04T06:56:31;-8.50;95.70
42095;DHT22;27753;55.724;37.612;2022-12-04T06:58:59;-8.50;95.60
42095;DHT22;27753;55.724;37.612;2022-12-04T07:01:28;-8.60;95.50
42095;DHT22;27753;55.724;37.612;2022-12-04T07:03:55;-8.50;95.60
42095;DHT22;27753;55.724;37.612;2022-12-04T07:06:27;-8.40;95.60
42095;DHT22;27753;55.724;37.612;2022-12-04T07:08:57;-8.40;95.60
42095;DHT22;27753;55.724;37.612;2022-12-04T07:11:23;-8.30;95.60
42095;DHT22;27753;55.724;37.612;2022-12-04T07:13:49;-8.30;95.40
42095;DHT22;27753;55.724;37.612;2022-12-04T07:16:18;-8.30;95.30
42095;DHT22;27753;55.724;37.612;2022-12-04T07:18:44;-8.30;95.30
42095;DHT22;27753;55.724;37.612;2022-12-04T07:21:14;-8.30;95.20
42095;DHT22;27753;55.724;37.612;2022-12-04T07:23:40;-8.20;95.30
42095;DHT22;27753;55.724;37.612;2022-12-04T07:26:08;-8.20;94.80
42095;DHT22;27753;55.724;37.612;2022-12-04T07:28:35;-8.20;95.00
42095;DHT22;27753;55.724;37.612;2022-12-04T07:31:06;-8.10;95.20
42095;DHT22;27753;55.724;37.612;2022-12-04T07:33:32;-8.00;94.70
42095;DHT22;27753;55.724;37.612;2022-12-04T07:36:00;-8.10;94.20
42095;DHT22;27753;55.724;37.612;2022-12-04T07:38:27;-8.10;94.30
42095;DHT22;27753;55.724;37.612;2022-12-04T07:40:58;-8.00;94.60
42095;DHT22;27753;55.724;37.612;2022-12-04T07:43:24;-7.90;94.60
42095;DHT22;27753;55.724;37.612;2022-12-04T07:45:50;-7.80;94.50
42095;DHT22;27753;55.724;37.612;2022-12-04T07:48:16;-7.80;94.30
42095;DHT22;27753;55.724;37.612;2022-12-04T07:50:42;-7.70;94.10
42095;DHT22;27753;55.724;37.612;2022-12-04T07:53:09;-7.70;94.00
42095;DHT22;27753;55.724;37.612;2022-12-04T07:55:35;-7.40;94.40
42095;DHT22;27753;55.724;37.612;2022-12-04T07:58:01;-7.00;94.20
42095;DHT22;27753;55.724;37.612;2022-12-04T08:00:27;-6.70;93.90
42095;DHT22;27753;55.724;37.612;2022-12-04T08:02:53;-6.30;93.90
42095;DHT22;27753;55.724;37.612;2022-12-04T08:05:19;-5.80;93.80
42095;DHT22;27753;55.724;37.612;2022-12-04T08:07:45;-5.40;93.20
42095;DHT22;27753;55.724;37.612;2022-12-04T08:10:11;-5.10;92.70
42095;DHT22;27753;55.724;37.612;2022-12-04T08:12:37;-4.90;91.90
42095;DHT22;27753;55.724;37.612;2022-12-04T08:15:03;-5.20;90.20
42095;DHT22;27753;55.724;37.612;2022-12-04T08:17:30;-5.30;91.00
42095;DHT22;27753;55.724;37.612;2022-12-04T08:19:56;-5.10;91.20
42095;DHT22;27753;55.724;37.612;2022-12-04T08:22:23;-4.90;90.70
42095;DHT22;27753;55.724;37.612;2022-12-04T08:24:49;-4.70;90.60
42095;DHT22;27753;55.724;37.612;2022-12-04T08:27:15;-4.60;90.20
42095;DHT22;27753;55.724;37.612;2022-12-04T08:29:41;-4.80;87.90
42095;DHT22;27753;55.724;37.612;2022-12-04T08:32:07;-5.00;88.60
42095;DHT22;27753;55.724;37.612;2022-12-04T08:34:33;-4.90;89.20
42095;DHT22;27753;55.724;37.612;2022-12-04T08:36:59;-4.70;88.90
42095;DHT22;27753;55.724;37.612;2022-12-04T08:39:25;-4.70;87.90
42095;DHT22;27753;55.724;37.612;2022-12-04T08:41:51;-4.70;87.20
42095;DHT22;27753;55.724;37.612;2022-12-04T08:44:17;-5.00;86.00
42095;DHT22;27753;55.724;37.612;2022-12-04T08:46:43;-5.10;86.80
42095;DHT22;27753;55.724;37.612;2022-12-04T08:49:09;-5.20;86.50
42095;DHT22;27753;55.724;37.612;2022-12-04T08:51:34;-5.20;86.90
42095;DHT22;27753;55.724;37.612;2022-12-04T08:54:06;-5.30;85.70
42095;DHT22;27753;55.724;37.612;2022-12-04T08:56:33;-5.40;85.90
42095;DHT22;27753;55.724;37.612;2022-12-04T08:58:59;-5.30;86.70
42095;DHT22;27753;55.724;37.612;2022-12-04T09:01:27;-5.20;86.60
42095;DHT22;27753;55.724;37.612;2022-12-04T09:03:53;-5.00;86.40
42095;DHT22;27753;55.724;37.612;2022-12-04T09:06:20;-4.80;86.10
42095;DHT22;27753;55.724;37.612;2022-12-04T09:08:46;-4.70;85.90
42095;DHT22;27753;55.724;37.612;2022-12-04T09:11:19;-4.50;85.40
42095;DHT22;27753;55.724;37.612;2022-12-04T09:13:46;-4.40;84.80
42095;DHT22;27753;55.724;37.612;2022-12-04T09:16:23;-4.30;85.00
42095;DHT22;27753;55.724;37.612;2022-12-04T09:18:49;-4.20;84.60
42095;DHT22;27753;55.724;37.612;2022-12-04T09:21:17;-4.10;84.10
42095;DHT22;27753;55.724;37.612;2022-12-04T09:23:44;-4.00;83.90
42095;DHT22;27753;55.724;37.612;2022-12-04T09:26:25;-4.00;82.90
42095;DHT22;27753;55.724;37.612;2022-12-04T09:28:52;-4.20;82.80
42095;DHT22;27753;55.724;37.612;2022-12-04T09:31:21;-4.30;82.80
42095;DHT22;27753;55.724;37.612;2022-12-04T09:33:47;-4.40;83.00
42095;DHT22;27753;55.724;37.612;2022-12-04T09:36:13;-4.60;82.80
42095;DHT22;27753;55.724;37.612;2022-12-04T09:38:44;-4.70;83.20
42095;DHT22;27753;55.724;37.612;2022-12-04T09:46:56;-5.00;83.20
42095;DHT22;27753;55.724;37.612;2022-12-04T09:49:27;-5.20;83.00
42095;DHT22;27753;55.724;37.612;2022-12-04T09:51:58;-5.20;83.50
42095;DHT22;27753;55.724;37.612;2022-12-04T09:54:29;-5.30;83.50
42095;DHT22;27753;55.724;37.612;2022-12-04T09:57:04;-5.20;84.00
42095;DHT22;27753;55.724;37.612;2022-12-04T09:59:33;-5.00;84.20
42095;DHT22;27753;55.724;37.612;2022-12-04T10:04:34;-4.20;84.90
42095;DHT22;27753;55.724;37.612;2022-12-04T10:09:42;-3.30;83.50
42095;DHT22;27753;55.724;37.612;2022-12-04T10:15:18;-2.40;80.70
42095;DHT22;27753;55.724;37.612;2022-12-04T10:17:53;-2.10;79.60
42095;DHT22;27753;55.724;37.612;2022-12-04T10:20:50;-2.00;78.50
42095;DHT22;27753;55.724;37.612;2022-12-04T10:26:14;-2.70;76.70
42095;DHT22;27753;55.724;37.612;2022-12-04T10:28:52;-3.30;77.00
42095;DHT22;27753;55.724;37.612;2022-12-04T10:31:19;-3.70;78.00
42095;DHT22;27753;55.724;37.612;2022-12-04T10:34:10;-4.00;78.50
42095;DHT22;27753;55.724;37.612;2022-12-04T10:36:44;-4.30;79.00
42095;DHT22;27753;55.724;37.612;2022-12-04T10:39:15;-4.40;79.20
42095;DHT22;27753;55.724;37.612;2022-12-04T10:44:19;-4.80;80.30
42095;DHT22;27753;55.724;37.612;2022-12-04T10:46:45;-4.80;80.80
42095;DHT22;27753;55.724;37.612;2022-12-04T10:49:26;-4.80;81.00
42095;DHT22;27753;55.724;37.612;2022-12-04T10:51:53;-4.80;81.30
42095;DHT22;27753;55.724;37.612;2022-12-04T10:54:29;-4.90;81.20
42095;DHT22;27753;55.724;37.612;2022-12-04T10:57:01;-4.90;81.30
42095;DHT22;27753;55.724;37.612;2022-12-04T10:59:28;-4.90;81.60
42095;DHT22;27753;55.724;37.612;2022-12-04T11:02:23;-4.90;81.90
42095;DHT22;27753;55.724;37.612;2022-12-04T11:05:04;-4.90;81.80
42095;DHT22;27753;55.724;37.612;2022-12-04T11:07:35;-5.00;81.90
42095;DHT22;27753;55.724;37.612;2022-12-04T11:12:31;-5.00;82.20
42095;DHT22;27753;55.724;37.612;2022-12-04T11:17:35;-5.20;82.60
42095;DHT22;27753;55.724;37.612;2022-12-04T11:20:04;-5.30;82.90
42095;DHT22;27753;55.724;37.612;2022-12-04T11:22:31;-5.20;83.20
42095;DHT22;27753;55.724;37.612;2022-12-04T11:25:00;-5.20;83.40
42095;DHT22;27753;55.724;37.612;2022-12-04T11:27:31;-5.20;83.40
42095;DHT22;27753;55.724;37.612;2022-12-04T11:30:07;-5.30;83.60
42095;DHT22;27753;55.724;37.612;2022-12-04T11:32:34;-5.30;83.80
42095;DHT22;27753;55.724;37.612;2022-12-04T11:35:15;-5.30;84.10
42095;DHT22;27753;55.724;37.612;2022-12-04T11:37:51;-5.30;84.10
42095;DHT22;27753;55.724;37.612;2022-12-04T11:40:18;-5.30;84.20
42095;DHT22;27753;55.724;37.612;2022-12-04T11:45:28;-5.40;84.40
42095;DHT22;27753;55.724;37.612;2022-12-04T11:47:57;-5.40;84.60
42095;DHT22;27753;55.724;37.612;2022-12-04T11:50:56;-5.50;84.60
42095;DHT22;27753;55.724;37.612;2022-12-04T11:57:00;-5.60;85.10
42095;DHT22;27753;55.724;37.612;2022-12-04T12:05:35;-5.60;85.60
42095;DHT22;27753;55.724;37.612;2022-12-04T12:08:59;-5.70;85.80
42095;DHT22;27753;55.724;37.612;2022-12-04T12:11:25;-5.70;86.10
42095;DHT22;27753;55.724;37.612;2022-12-04T12:19:46;-5.90;86.60
42095;DHT22;27753;55.724;37.612;2022-12-04T12:30:16;-6.10;87.50
42095;DHT22;27753;55.724;37.612;2022-12-04T12:35:28;-6.20;88.00
42095;DHT22;27753;55.724;37.612;2022-12-04T12:38:04;-6.20;88.30
42095;DHT22;27753;55.724;37.612;2022-12-04T12:40:37;-6.30;88.50
42095;DHT22;27753;55.724;37.612;2022-12-04T12:43:12;-6.30;88.70
42095;DHT22;27753;55.724;37.612;2022-12-04T12:46:05;-6.30;88.90
42095;DHT22;27753;55.724;37.612;2022-12-04T12:48:45;-6.40;89.10
42095;DHT22;27753;55.724;37.612;2022-12-04T12:53:52;-6.40;89.40
42095;DHT22;27753;55.724;37.612;2022-12-04T12:56:30;-6.50;89.60
42095;DHT22;27753;55.724;37.612;2022-12-04T12:59:04;-6.50;89.80
42095;DHT22;27753;55.724;37.612;2022-12-04T13:04:19;-6.60;90.00
42095;DHT22;27753;55.724;37.612;2022-12-04T13:06:52;-6.60;90.20
42095;DHT22;27753;55.724;37.612;2022-12-04T13:09:25;-6.60;90.30
42095;DHT22;27753;55.724;37.612;2022-12-04T13:12:07;-6.60;90.40
42095;DHT22;27753;55.724;37.612;2022-12-04T13:14:34;-6.60;90.40
42095;DHT22;27753;55.724;37.612;2022-12-04T13:17:11;-6.60;90.40
42095;DHT22;27753;55.724;37.612;2022-12-04T13:19:49;-6.60;90.60
42095;DHT22;27753;55.724;37.612;2022-12-04T13:25:42;-6.70;90.60
42095;DHT22;27753;55.724;37.612;2022-12-04T13:33:44;-6.80;90.70
42095;DHT22;27753;55.724;37.612;2022-12-04T13:36:36;-6.80;90.80
42095;DHT22;27753;55.724;37.612;2022-12-04T13:42:21;-6.80;90.90
42095;DHT22;27753;55.724;37.612;2022-12-04T13:45:02;-6.90;90.80
42095;DHT22;27753;55.724;37.612;2022-12-04T13:47:32;-7.00;90.90
42095;DHT22;27753;55.724;37.612;2022-12-04T13:52:38;-7.00;91.10
42095;DHT22;27753;55.724;37.612;2022-12-04T13:57:55;-7.00;91.10
42095;DHT22;27753;55.724;37.612;2022-12-04T14:00:30;-7.00;91.10
42095;DHT22;27753;55.724;37.612;2022-12-04T14:02:59;-7.00;91.20
42095;DHT22;27753;55.724;37.612;2022-12-04T14:05:39;-7.10;91.20
42095;DHT22;27753;55.724;37.612;2022-12-04T14:10:44;-7.10;91.20
42095;DHT22;27753;55.724;37.612;2022-12-04T14:13:46;-7.10;91.20
42095;DHT22;27753;55.724;37.612;2022-12-04T14:16:26;-7.10;91.20
42095;DHT22;27753;55.724;37.612;2022-12-04T14:19:00;-7.20;91.20
42095;DHT22;27753;55.724;37.612;2022-12-04T14:21:45;-7.20;91.20
42095;DHT22;27753;55.724;37.612;2022-12-04T14:24:28;-7.20;91.30
42095;DHT22;27753;55.724;37.612;2022-12-04T14:26:55;-7.30;91.30
42095;DHT22;27753;55.724;37.612;2022-12-04T14:31:57;-7.30;91.40
42095;DHT22;27753;55.724;37.612;2022-12-04T14:34:29;-7.30;91.40
42095;DHT22;27753;55.724;37.612;2022-12-04T14:36:59;-7.30;91.40
42095;DHT22;27753;55.724;37.612;2022-12-04T14:42:12;-7.30;91.40
42095;DHT22;27753;55.724;37.612;2022-12-04T14:44:39;-7.40;91.40
42095;DHT22;27753;55.724;37.612;2022-12-04T14:47:19;-7.40;91.40
42095;DHT22;27753;55.724;37.612;2022-12-04T14:55:02;-7.40;91.80
42095;DHT22;27753;55.724;37.612;2022-12-04T14:57:58;-7.40;91.60
42095;DHT22;27753;55.724;37.612;2022-12-04T15:00:25;-7.40;91.50
42095;DHT22;27753;55.724;37.612;2022-12-04T15:02:57;-7.50;91.60
42095;DHT22;27753;55.724;37.612;2022-12-04T15:05:29;-7.50;91.50
42095;DHT22;27753;55.724;37.612;2022-12-04T15:08:01;-7.50;91.50
42095;DHT22;27753;55.724;37.612;2022-12-04T15:10:29;-7.50;91.60
42095;DHT22;27753;55.724;37.612;2022-12-04T15:13:31;-7.50;91.60
42095;DHT22;27753;55.724;37.612;2022-12-04T15:16:03;-7.60;91.50
42095;DHT22;27753;55.724;37.612;2022-12-04T15:18:32;-7.60;91.60
42095;DHT22;27753;55.724;37.612;2022-12-04T15:20:59;-7.60;91.60
42095;DHT22;27753;55.724;37.612;2022-12-04T15:23:30;-7.60;91.70
42095;DHT22;27753;55.724;37.612;2022-12-04T15:26:04;-7.60;91.70
42095;DHT22;27753;55.724;37.612;2022-12-04T15:28:44;-7.60;91.70
42095;DHT22;27753;55.724;37.612;2022-12-04T15:33:45;-7.60;92.00
42095;DHT22;27753;55.724;37.612;2022-12-04T15:36:26;-7.60;91.70
42095;DHT22;27753;55.724;37.612;2022-12-04T15:38:55;-7.70;91.60
42095;DHT22;27753;55.724;37.612;2022-12-04T15:41:29;-7.70;91.60
42095;DHT22;27753;55.724;37.612;2022-12-04T15:43:56;-7.70;91.70
42095;DHT22;27753;55.724;37.612;2022-12-04T15:46:28;-7.70;91.80
42095;DHT22;27753;55.724;37.612;2022-12-04T15:49:18;-7.70;91.80
42095;DHT22;27753;55.724;37.612;2022-12-04T15:51:47;-7.70;91.70
42095;DHT22;27753;55.724;37.612;2022-12-04T15:54:22;-7.80;91.60
42095;DHT22;27753;55.724;37.612;2022-12-04T15:57:00;-7.80;91.70
42095;DHT22;27753;55.724;37.612;2022-12-04T15:59:27;-7.80;91.60
42095;DHT22;27753;55.724;37.612;2022-12-04T16:01:54;-7.80;91.60
42095;DHT22;27753;55.724;37.612;2022-12-04T16:04:21;-7.80;91.60
42095;DHT22;27753;55.724;37.612;2022-12-04T16:06:51;-7.80;91.60
42095;DHT22;27753;55.724;37.612;2022-12-04T16:12:18;-7.90;91.60
42095;DHT22;27753;55.724;37.612;2022-12-04T16:14:44;-7.90;91.50
42095;DHT22;27753;55.724;37.612;2022-12-04T16:17:11;-7.90;91.40
42095;DHT22;27753;55.724;37.612;2022-12-04T16:19:39;-7.90;91.40
42095;DHT22;27753;55.724;37.612;2022-12-04T16:22:17;-7.90;91.70
42095;DHT22;27753;55.724;37.612;2022-12-04T16:24:44;-7.90;91.40
42095;DHT22;27753;55.724;37.612;2022-12-04T16:27:12;-8.00;91.30
42095;DHT22;27753;55.724;37.612;2022-12-04T16:29:41;-8.00;91.30
42095;DHT22;27753;55.724;37.612;2022-12-04T16:32:11;-8.00;91.30
42095;DHT22;27753;55.724;37.612;2022-12-04T16:34:46;-8.00;91.30
42095;DHT22;27753;55.724;37.612;2022-12-04T16:37:18;-8.00;91.40
42095;DHT22;27753;55.724;37.612;2022-12-04T16:39:44;-8.10;91.40
42095;DHT22;27753;55.724;37.612;2022-12-04T16:42:24;-8.10;91.40
42095;DHT22;27753;55.724;37.612;2022-12-04T16:44:54;-8.10;91.40
42095;DHT22;27753;55.724;37.612;2022-12-04T16:47:21;-8.10;91.40
42095;DHT22;27753;55.724;37.612;2022-12-04T16:49:50;-8.10;91.30
42095;DHT22;27753;55.724;37.612;2022-12-04T16:52:17;-8.10;91.40
42095;DHT22;27753;55.724;37.612;2022-12-04T16:54:43;-8.20;91.40
42095;DHT22;27753;55.724;37.612;2022-12-04T16:57:09;-8.10;91.50
42095;DHT22;27753;55.724;37.612;2022-12-04T16:59:38;-8.20;91.30
42095;DHT22;27753;55.724;37.612;2022-12-04T17:02:14;-8.20;91.40
42095;DHT22;27753;55.724;37.612;2022-12-04T17:04:41;-8.30;91.40
42095;DHT22;27753;55.724;37.612;2022-12-04T17:07:07;-8.30;91.50
42095;DHT22;27753;55.724;37.612;2022-12-04T17:09:33;-8.40;91.40
42095;DHT22;27753;55.724;37.612;2022-12-04T17:11:58;-8.40;91.50
42095;DHT22;27753;55.724;37.612;2022-12-04T17:14:24;-8.50;91.50
42095;DHT22;27753;55.724;37.612;2022-12-04T17:16:50;-8.50;91.60
42095;DHT22;27753;55.724;37.612;2022-12-04T17:19:18;-8.50;91.70
42095;DHT22;27753;55.724;37.612;2022-12-04T17:21:44;-8.50;91.70
42095;DHT22;27753;55.724;37.612;2022-12-04T17:24:13;-8.50;91.80
42095;DHT22;27753;55.724;37.612;2022-12-04T17:26:39;-8.50;91.80
42095;DHT22;27753;55.724;37.612;2022-12-04T17:29:04;-8.50;91.80
42095;DHT22;27753;55.724;37.612;2022-12-04T17:31:32;-8.50;91.90
42095;DHT22;27753;55.724;37.612;2022-12-04T17:33:57;-8.50;91.90
42095;DHT22;27753;55.724;37.612;2022-12-04T17:36:25;-8.50;92.00
42095;DHT22;27753;55.724;37.612;2022-12-04T17:38:57;-8.60;92.10
42095;DHT22;27753;55.724;37.612;2022-12-04T17:41:26;-8.60;92.10